Time;durP1;ratioP1;P1;durP2;ratioP2;P2;SDS_P1;SDS_P2;PMS_P1;PMS_P2;Temp;Humidity;BMP_temperature;BMP_pressure;BME280_temperature;BME280_humidity;BME280_pressure;Samples;Min_cycle;Max_cycle;Signal;HPM_P1;HPM_P2
2021/03/03 00:01:34;;;;;;;;;;;9.10;56.70;;;;;;5032681;28;19921;-78
2021/03/03 00:04:00;;;;;;;;;;;9.10;56.70;;;;;;5018573;28;19921;-78
2021/03/03 00:06:27;;;;;;;;;;;9.10;56.80;;;;;;5016312;28;19952;-79
2021/03/03 00:08:54;;;;;;;;;;;9.00;56.70;;;;;;5026983;28;20294;-79
2021/03/03 00:11:20;;;;;;;;;;;9.00;56.70;;;;;;5024592;28;19948;-78
2021/03/03 00:13:46;;;;;;;;;;;9.00;56.70;;;;;;5027691;28;19925;-79
2021/03/03 00:16:13;;;;;;;;;;;9.00;56.80;;;;;;5032593;28;19925;-80
2021/03/03 00:18:39;;;;;;;;;;;9.00;56.80;;;;;;5023180;28;19921;-80
2021/03/03 00:21:05;;;;;;;;;;;8.90;56.90;;;;;;5019769;28;19944;-79
2021/03/03 00:23:32;;;;;;;;;;;8.90;57.00;;;;;;5024614;28;19928;-79
2021/03/03 00:25:59;;;;;;;;;;;8.90;57.10;;;;;;5012615;28;20028;-79
2021/03/03 00:28:25;;;;;;;;;;;8.90;57.10;;;;;;5019029;28;19928;-76
2021/03/03 00:30:51;;;;;;;;;;;8.90;57.10;;;;;;5032376;28;19928;-79
2021/03/03 00:33:18;;;;;;;;;;;8.90;57.10;;;;;;5030671;28;19988;-78
2021/03/03 00:35:44;;;;;;;;;;;8.90;56.90;;;;;;5031883;28;19925;-78
2021/03/03 00:38:10;;;;;;;;;;;8.90;56.90;;;;;;5032361;28;19929;-78
2021/03/03 00:40:38;;;;;;;;;;;9.00;57.00;;;;;;5014536;28;19922;-78
2021/03/03 00:43:04;;;;;;;;;;;8.90;57.00;;;;;;5018967;28;20297;-78
2021/03/03 00:45:30;;;;;;;;;;;8.80;57.00;;;;;;5016263;28;19947;-78
2021/03/03 00:47:56;;;;;;;;;;;8.80;57.10;;;;;;5016281;28;19928;-80
2021/03/03 00:50:23;;;;;;;;;;;8.80;57.20;;;;;;5016621;28;19921;-79
2021/03/03 00:52:49;;;;;;;;;;;8.80;57.30;;;;;;5016025;28;20436;-79
2021/03/03 00:55:15;;;;;;;;;;;8.70;57.30;;;;;;5034093;28;19920;-78
2021/03/03 00:57:43;;;;;;;;;;;8.70;57.30;;;;;;5035488;28;19967;-78
2021/03/03 01:00:09;;;;;;;;;;;8.70;57.50;;;;;;5033608;28;19925;-78
2021/03/03 01:02:36;;;;;;;;;;;8.60;57.60;;;;;;5035184;28;19921;-78
2021/03/03 01:05:02;;;;;;;;;;;8.70;57.70;;;;;;5019160;28;19921;-78
2021/03/03 01:07:29;;;;;;;;;;;8.60;57.60;;;;;;5034284;28;20384;-78
2021/03/03 01:09:55;;;;;;;;;;;8.70;57.70;;;;;;5025567;28;19925;-78
2021/03/03 01:12:21;;;;;;;;;;;8.60;57.70;;;;;;5032150;28;19921;-78
2021/03/03 01:14:48;;;;;;;;;;;8.60;57.70;;;;;;5022177;28;19921;-78
2021/03/03 01:17:15;;;;;;;;;;;8.60;57.80;;;;;;5015726;28;19928;-78
2021/03/03 01:19:41;;;;;;;;;;;8.60;57.90;;;;;;5033262;28;19920;-77
2021/03/03 01:22:07;;;;;;;;;;;8.60;57.80;;;;;;5035031;28;19921;-79
2021/03/03 01:24:34;;;;;;;;;;;8.60;57.80;;;;;;5024836;28;20370;-79
2021/03/03 01:27:00;;;;;;;;;;;8.60;57.90;;;;;;5014846;28;19984;-78
2021/03/03 01:29:26;;;;;;;;;;;8.60;58.00;;;;;;5015821;28;19921;-79
2021/03/03 01:31:53;;;;;;;;;;;8.60;58.10;;;;;;5015058;28;20298;-79
2021/03/03 01:34:20;;;;;;;;;;;8.50;58.00;;;;;;5020389;28;19921;-79
2021/03/03 01:36:46;;;;;;;;;;;8.60;58.10;;;;;;5034098;28;19921;-79
2021/03/03 01:39:12;;;;;;;;;;;8.60;58.20;;;;;;5028894;28;20293;-78
2021/03/03 01:41:38;;;;;;;;;;;8.60;58.10;;;;;;5014547;28;19921;-78
2021/03/03 01:44:05;;;;;;;;;;;8.60;58.10;;;;;;5016659;28;20263;-78
2021/03/03 01:46:31;;;;;;;;;;;8.60;58.10;;;;;;5014825;28;19921;-77
2021/03/03 01:48:59;;;;;;;;;;;8.60;58.20;;;;;;5016172;28;19928;-78
2021/03/03 01:51:26;;;;;;;;;;;8.60;58.10;;;;;;5034450;28;19920;-77
2021/03/03 01:53:52;;;;;;;;;;;8.60;58.10;;;;;;5034100;28;20300;-77
2021/03/03 01:56:19;;;;;;;;;;;8.60;58.20;;;;;;5034598;28;19920;-78
2021/03/03 01:58:45;;;;;;;;;;;8.60;58.20;;;;;;5034121;28;19921;-77
2021/03/03 02:01:11;;;;;;;;;;;8.60;58.30;;;;;;5013943;28;19922;-77
2021/03/03 02:03:38;;;;;;;;;;;8.60;58.40;;;;;;5014604;28;19921;-77
2021/03/03 02:06:09;;;;;;;;;;;8.60;58.40;;;;;;5015409;28;19972;-78
2021/03/03 02:08:37;;;;;;;;;;;8.60;58.40;;;;;;5049658;28;19998;-77
2021/03/03 02:11:08;;;;;;;;;;;8.60;58.30;;;;;;5034219;28;19921;-77
2021/03/03 02:13:36;;;;;;;;;;;8.60;58.40;;;;;;5033084;28;19920;-77
2021/03/03 02:16:04;;;;;;;;;;;8.60;58.40;;;;;;5014321;28;19928;-77
2021/03/03 02:18:31;;;;;;;;;;;8.60;58.40;;;;;;5014314;28;19925;-78
2021/03/03 02:21:01;;;;;;;;;;;8.60;58.40;;;;;;5033273;28;19928;-78
2021/03/03 02:23:35;;;;;;;;;;;8.60;58.90;;;;;;5034118;28;19921;-77
2021/03/03 02:26:03;;;;;;;;;;;8.60;58.40;;;;;;5012894;28;19933;-77
2021/03/03 02:28:30;;;;;;;;;;;8.60;58.40;;;;;;5013984;28;19922;-77
2021/03/03 02:30:56;;;;;;;;;;;8.50;58.40;;;;;;5021179;28;19921;-76
2021/03/03 02:33:23;;;;;;;;;;;8.50;58.40;;;;;;5033802;28;19933;-76
2021/03/03 02:35:49;;;;;;;;;;;8.50;58.50;;;;;;5016129;28;19921;-76
2021/03/03 02:38:16;;;;;;;;;;;8.50;58.50;;;;;;5013828;28;19952;-77
2021/03/03 02:40:43;;;;;;;;;;;8.50;58.50;;;;;;5019505;28;19929;-77
2021/03/03 02:43:13;;;;;;;;;;;8.50;58.60;;;;;;5033692;28;19928;-78
2021/03/03 02:45:39;;;;;;;;;;;8.40;58.60;;;;;;5030211;28;19925;-78
2021/03/03 02:48:08;;;;;;;;;;;8.40;58.70;;;;;;5033053;28;19960;-77
2021/03/03 02:50:34;;;;;;;;;;;8.40;58.80;;;;;;5031888;28;19921;-78
2021/03/03 02:53:00;;;;;;;;;;;8.40;58.90;;;;;;5024870;28;19932;-77
2021/03/03 02:55:27;;;;;;;;;;;8.40;58.90;;;;;;5020314;28;20270;-77
2021/03/03 02:57:53;;;;;;;;;;;8.30;58.80;;;;;;5013623;28;19932;-77
2021/03/03 03:00:22;;;;;;;;;;;8.40;58.90;;;;;;5021775;28;19925;-77
2021/03/03 03:02:49;;;;;;;;;;;8.40;58.90;;;;;;5020010;28;19926;-78
2021/03/03 03:05:17;;;;;;;;;;;8.40;58.90;;;;;;5013572;28;19921;-77
2021/03/03 03:07:45;;;;;;;;;;;8.40;58.90;;;;;;5037655;28;19924;-79
2021/03/03 03:10:14;;;;;;;;;;;8.30;58.90;;;;;;5039131;28;19964;-77
2021/03/03 03:12:42;;;;;;;;;;;8.30;59.00;;;;;;5026559;28;19979;-77
2021/03/03 03:15:09;;;;;;;;;;;8.30;59.00;;;;;;5033235;28;19921;-78
2021/03/03 03:17:37;;;;;;;;;;;8.30;59.00;;;;;;5032468;28;19921;-78
2021/03/03 03:20:04;;;;;;;;;;;8.30;59.10;;;;;;5024827;28;19921;-77
2021/03/03 03:22:30;;;;;;;;;;;8.30;59.10;;;;;;5026787;28;19931;-78
2021/03/03 03:24:58;;;;;;;;;;;8.30;59.10;;;;;;5013274;28;19925;-76
2021/03/03 03:27:25;;;;;;;;;;;8.30;59.10;;;;;;5017012;28;20325;-76
2021/03/03 03:29:51;;;;;;;;;;;8.30;59.10;;;;;;5030668;28;19968;-78
2021/03/03 03:32:18;;;;;;;;;;;8.30;59.20;;;;;;5013983;28;19953;-77
2021/03/03 03:34:45;;;;;;;;;;;8.30;59.20;;;;;;5032794;28;20262;-77
2021/03/03 03:37:13;;;;;;;;;;;8.30;59.20;;;;;;5032886;28;19928;-77
2021/03/03 03:39:39;;;;;;;;;;;8.30;59.20;;;;;;5032024;28;19921;-76
2021/03/03 03:42:06;;;;;;;;;;;8.30;59.20;;;;;;5015639;28;19925;-76
2021/03/03 03:44:32;;;;;;;;;;;8.20;59.20;;;;;;5014291;28;19922;-76
2021/03/03 03:46:59;;;;;;;;;;;8.30;59.20;;;;;;5024871;28;19975;-77
2021/03/03 03:49:26;;;;;;;;;;;8.30;59.30;;;;;;5013498;28;20374;-76
2021/03/03 03:51:53;;;;;;;;;;;8.20;59.30;;;;;;5025252;28;19971;-76
2021/03/03 03:54:19;;;;;;;;;;;8.30;59.30;;;;;;5032557;28;20016;-76
2021/03/03 03:56:46;;;;;;;;;;;8.20;59.20;;;;;;5020945;28;20289;-77
2021/03/03 03:59:12;;;;;;;;;;;8.20;59.20;;;;;;5013243;28;19932;-77
2021/03/03 04:01:38;;;;;;;;;;;8.20;59.20;;;;;;5022447;28;19921;-77
2021/03/03 04:04:05;;;;;;;;;;;8.20;59.30;;;;;;5032739;28;20004;-77
2021/03/03 04:06:31;;;;;;;;;;;8.20;59.30;;;;;;5028920;28;19979;-78
2021/03/03 04:08:58;;;;;;;;;;;8.20;59.20;;;;;;5052594;28;19920;-77
2021/03/03 04:11:24;;;;;;;;;;;8.10;59.20;;;;;;5044784;28;19928;-77
2021/03/03 04:13:51;;;;;;;;;;;8.10;59.40;;;;;;5034823;28;20385;-77
2021/03/03 04:16:17;;;;;;;;;;;8.10;59.50;;;;;;5025344;28;19968;-77
2021/03/03 04:18:43;;;;;;;;;;;8.10;60.00;;;;;;5016508;28;19925;-77
2021/03/03 04:21:09;;;;;;;;;;;8.10;59.60;;;;;;5016931;28;19975;-77
2021/03/03 04:23:36;;;;;;;;;;;8.10;59.60;;;;;;5016295;28;19944;-76
2021/03/03 04:26:03;;;;;;;;;;;8.10;59.60;;;;;;5017069;28;19925;-77
2021/03/03 04:28:29;;;;;;;;;;;8.10;59.80;;;;;;5016345;28;20062;-76
2021/03/03 04:30:56;;;;;;;;;;;8.10;59.80;;;;;;5017007;28;19921;-77
2021/03/03 04:33:22;;;;;;;;;;;8.10;59.80;;;;;;5016367;28;20373;-76
2021/03/03 04:35:48;;;;;;;;;;;8.10;59.70;;;;;;5017474;28;19929;-77
2021/03/03 04:38:14;;;;;;;;;;;8.10;59.70;;;;;;5014432;28;19925;-77
2021/03/03 04:40:41;;;;;;;;;;;8.10;59.80;;;;;;5016971;28;19921;-78
2021/03/03 04:43:08;;;;;;;;;;;8.10;59.90;;;;;;5016258;28;20301;-77
2021/03/03 04:45:34;;;;;;;;;;;8.10;59.90;;;;;;5017225;28;19930;-78
2021/03/03 04:48:01;;;;;;;;;;;8.10;60.00;;;;;;5018335;28;19936;-77
2021/03/03 04:50:27;;;;;;;;;;;8.10;60.00;;;;;;5035581;28;19921;-77
2021/03/03 04:52:53;;;;;;;;;;;8.10;60.00;;;;;;5016033;28;19983;-77
2021/03/03 04:55:19;;;;;;;;;;;8.10;59.90;;;;;;5015663;28;19922;-77
2021/03/03 04:57:46;;;;;;;;;;;8.10;59.90;;;;;;5034806;28;19921;-77
2021/03/03 05:00:14;;;;;;;;;;;8.10;60.00;;;;;;5035559;28;19968;-78
2021/03/03 05:02:40;;;;;;;;;;;8.10;60.00;;;;;;5035154;28;20411;-76
2021/03/03 05:05:07;;;;;;;;;;;8.10;60.00;;;;;;5033273;28;19928;-76
2021/03/03 05:07:33;;;;;;;;;;;8.10;60.00;;;;;;5040222;28;19928;-77
2021/03/03 05:09:59;;;;;;;;;;;8.10;60.00;;;;;;5054970;28;20357;-76
2021/03/03 05:12:27;;;;;;;;;;;8.10;60.00;;;;;;5037833;28;19944;-76
2021/03/03 05:14:53;;;;;;;;;;;8.10;60.00;;;;;;5035207;28;19975;-76
2021/03/03 05:17:21;;;;;;;;;;;8.20;60.10;;;;;;5033506;28;19943;-76
2021/03/03 05:19:47;;;;;;;;;;;8.10;59.90;;;;;;5035140;28;19921;-76
2021/03/03 05:22:13;;;;;;;;;;;8.10;59.90;;;;;;5025063;28;19936;-76
2021/03/03 05:24:39;;;;;;;;;;;8.10;60.00;;;;;;5035053;28;20011;-76
2021/03/03 05:27:06;;;;;;;;;;;8.10;60.00;;;;;;5028087;28;20393;-75
2021/03/03 05:29:32;;;;;;;;;;;8.10;60.00;;;;;;5015271;28;19929;-75
2021/03/03 05:31:58;;;;;;;;;;;8.10;60.00;;;;;;5021011;28;19929;-75
2021/03/03 05:34:26;;;;;;;;;;;8.10;60.10;;;;;;5030232;28;19928;-75
2021/03/03 05:36:52;;;;;;;;;;;8.10;60.10;;;;;;5027334;28;20027;-75
2021/03/03 05:39:18;;;;;;;;;;;8.00;60.10;;;;;;5027032;28;19929;-75
2021/03/03 05:41:45;;;;;;;;;;;8.00;60.10;;;;;;5033961;28;19928;-76
2021/03/03 05:44:11;;;;;;;;;;;8.00;60.20;;;;;;5033365;28;19928;-75
2021/03/03 05:46:38;;;;;;;;;;;8.10;60.30;;;;;;5030417;28;20400;-76
2021/03/03 05:49:05;;;;;;;;;;;8.00;60.30;;;;;;5034396;28;19925;-76
2021/03/03 05:51:33;;;;;;;;;;;8.10;60.40;;;;;;5032495;28;19925;-76
2021/03/03 05:54:00;;;;;;;;;;;8.10;60.40;;;;;;5023624;28;19921;-75
2021/03/03 05:56:26;;;;;;;;;;;8.10;60.30;;;;;;5030641;28;20413;-75
2021/03/03 05:58:53;;;;;;;;;;;8.10;60.20;;;;;;5030446;28;19921;-74
2021/03/03 06:01:20;;;;;;;;;;;8.10;60.20;;;;;;5027953;28;19921;-75
2021/03/03 06:03:46;;;;;;;;;;;8.10;60.40;;;;;;5030060;28;19925;-75
2021/03/03 06:06:12;;;;;;;;;;;8.10;60.40;;;;;;5032600;28;20352;-75
2021/03/03 06:08:39;;;;;;;;;;;8.10;60.40;;;;;;5033169;28;19928;-76
2021/03/03 06:11:06;;;;;;;;;;;8.10;60.40;;;;;;5022032;28;20281;-76
2021/03/03 06:13:32;;;;;;;;;;;8.10;60.40;;;;;;5025275;28;19931;-76
2021/03/03 06:15:59;;;;;;;;;;;8.10;60.40;;;;;;5032087;28;19921;-75
2021/03/03 06:18:25;;;;;;;;;;;8.10;60.40;;;;;;5033697;28;19994;-74
2021/03/03 06:20:52;;;;;;;;;;;8.20;60.50;;;;;;5032789;28;19929;-74
2021/03/03 06:23:19;;;;;;;;;;;8.20;60.50;;;;;;5025870;28;19947;-74
2021/03/03 06:25:47;;;;;;;;;;;8.20;60.50;;;;;;5013533;28;19952;-75
2021/03/03 06:28:30;;;;;;;;;;;8.30;60.60;;;;;;5032458;28;20325;-75
2021/03/03 06:30:57;;;;;;;;;;;8.30;60.50;;;;;;5026750;28;20048;-75
2021/03/03 06:33:24;;;;;;;;;;;8.30;60.40;;;;;;5018740;28;19952;-74
2021/03/03 06:35:50;;;;;;;;;;;8.30;60.30;;;;;;5029060;28;19932;-75
2021/03/03 06:38:17;;;;;;;;;;;8.40;60.40;;;;;;5014104;28;19952;-75
2021/03/03 06:40:51;;;;;;;;;;;8.40;60.20;;;;;;5014562;28;19921;-74
2021/03/03 06:43:19;;;;;;;;;;;8.40;60.10;;;;;;5030066;28;19921;-76
2021/03/03 06:45:45;;;;;;;;;;;8.50;60.10;;;;;;5017511;28;20270;-75
2021/03/03 06:48:11;;;;;;;;;;;8.50;60.00;;;;;;5013474;28;19925;-76
2021/03/03 06:50:38;;;;;;;;;;;8.50;60.10;;;;;;5018697;28;19921;-75
2021/03/03 06:53:05;;;;;;;;;;;8.60;60.10;;;;;;5030948;28;19975;-75
2021/03/03 06:55:44;;;;;;;;;;;8.60;60.10;;;;;;5029155;28;19969;-76
2021/03/03 06:58:24;;;;;;;;;;;8.60;60.10;;;;;;5013568;28;19921;-76
2021/03/03 07:00:51;;;;;;;;;;;8.60;60.00;;;;;;5014731;28;19922;-75
2021/03/03 07:03:24;;;;;;;;;;;8.70;60.00;;;;;;5013241;28;19976;-76
2021/03/03 07:05:50;;;;;;;;;;;8.70;60.00;;;;;;5017959;28;19925;-76
2021/03/03 07:08:17;;;;;;;;;;;8.70;59.90;;;;;;5048892;28;19931;-76
2021/03/03 07:10:43;;;;;;;;;;;8.70;59.90;;;;;;5046746;28;19928;-75
2021/03/03 07:13:09;;;;;;;;;;;8.80;60.00;;;;;;5032684;28;19925;-76
2021/03/03 07:15:37;;;;;;;;;;;8.80;59.90;;;;;;5032938;28;19921;-76
2021/03/03 07:18:03;;;;;;;;;;;8.90;59.90;;;;;;5029783;28;20343;-76
2021/03/03 07:20:31;;;;;;;;;;;8.90;59.70;;;;;;5032621;28;19921;-76
2021/03/03 07:22:58;;;;;;;;;;;8.90;59.60;;;;;;5031421;28;19921;-76
2021/03/03 07:25:24;;;;;;;;;;;9.00;59.60;;;;;;5033085;28;19921;-76
2021/03/03 07:27:51;;;;;;;;;;;9.10;59.70;;;;;;5031145;28;19936;-77
2021/03/03 07:30:19;;;;;;;;;;;9.10;59.60;;;;;;5032344;28;20374;-76
2021/03/03 07:32:46;;;;;;;;;;;9.20;59.50;;;;;;5026073;28;19921;-76
2021/03/03 07:35:13;;;;;;;;;;;9.30;59.40;;;;;;5013165;28;19921;-76
2021/03/03 07:37:40;;;;;;;;;;;9.40;59.40;;;;;;5017864;28;20428;-76
2021/03/03 07:40:08;;;;;;;;;;;9.40;59.40;;;;;;5032133;28;19921;-77
2021/03/03 07:42:35;;;;;;;;;;;9.50;59.20;;;;;;5022422;28;20321;-77
2021/03/03 07:45:03;;;;;;;;;;;9.60;59.00;;;;;;5031746;28;19975;-76
2021/03/03 07:47:30;;;;;;;;;;;9.70;58.90;;;;;;5035250;28;19921;-76
2021/03/03 07:50:03;;;;;;;;;;;9.70;58.90;;;;;;5036787;28;19928;-77
2021/03/03 07:52:31;;;;;;;;;;;9.80;58.70;;;;;;5025231;28;19928;-77
2021/03/03 07:54:57;;;;;;;;;;;9.90;58.60;;;;;;5016770;28;19932;-77
2021/03/03 07:57:24;;;;;;;;;;;9.90;58.40;;;;;;5026063;28;20270;-76
2021/03/03 07:59:52;;;;;;;;;;;10.00;57.40;;;;;;5034495;28;19925;-77
2021/03/03 08:02:18;;;;;;;;;;;10.00;57.30;;;;;;5036298;28;19925;-76
2021/03/03 08:04:44;;;;;;;;;;;10.10;57.30;;;;;;5036508;28;20266;-76
2021/03/03 08:07:19;;;;;;;;;;;10.10;57.20;;;;;;5029903;28;19957;-77
2021/03/03 08:10:04;;;;;;;;;;;10.20;57.20;;;;;;5016605;28;19921;-76
2021/03/03 08:12:30;;;;;;;;;;;10.30;57.20;;;;;;5028873;28;19932;-76
2021/03/03 08:14:57;;;;;;;;;;;10.30;57.00;;;;;;5030183;28;19921;-76
2021/03/03 08:17:25;;;;;;;;;;;10.40;57.00;;;;;;5016460;28;19960;-77
2021/03/03 08:19:53;;;;;;;;;;;10.40;57.00;;;;;;5020685;28;19925;-78
2021/03/03 08:22:21;;;;;;;;;;;10.50;57.10;;;;;;5026524;28;20000;-77
2021/03/03 08:24:47;;;;;;;;;;;10.60;56.90;;;;;;5019604;28;20068;-77
2021/03/03 08:27:28;;;;;;;;;;;10.60;56.60;;;;;;5035671;28;19944;-77
2021/03/03 08:30:09;;;;;;;;;;;10.70;56.50;;;;;;5033116;28;19925;-76
2021/03/03 08:32:35;;;;;;;;;;;10.80;56.50;;;;;;5034281;28;19928;-77
2021/03/03 08:35:03;;;;;;;;;;;10.80;56.30;;;;;;5031662;28;19921;-77
2021/03/03 08:37:31;;;;;;;;;;;10.90;56.30;;;;;;5018970;28;19924;-75
2021/03/03 08:39:58;;;;;;;;;;;10.90;56.20;;;;;;5025944;28;20362;-76
2021/03/03 08:42:37;;;;;;;;;;;11.00;56.10;;;;;;5030215;28;19921;-75
2021/03/03 08:45:08;;;;;;;;;;;11.10;56.10;;;;;;5035651;28;20271;-75
2021/03/03 08:47:52;;;;;;;;;;;11.20;56.00;;;;;;5028600;28;19925;-75
2021/03/03 08:50:32;;;;;;;;;;;11.30;55.90;;;;;;5028591;28;19960;-76
2021/03/03 08:53:16;;;;;;;;;;;11.30;55.80;;;;;;5026873;28;19944;-76
2021/03/03 08:55:44;;;;;;;;;;;11.40;55.50;;;;;;5035384;28;19921;-77
2021/03/03 08:58:25;;;;;;;;;;;11.50;55.40;;;;;;5031496;28;19975;-76
2021/03/03 09:00:51;;;;;;;;;;;11.60;55.20;;;;;;5014875;28;19929;-75
2021/03/03 09:03:19;;;;;;;;;;;11.70;55.10;;;;;;5029047;28;19921;-76
2021/03/03 09:05:46;;;;;;;;;;;11.80;55.00;;;;;;5017934;28;19973;-75
2021/03/03 09:08:18;;;;;;;;;;;11.80;54.80;;;;;;5030820;28;19921;-75
2021/03/03 09:10:46;;;;;;;;;;;11.90;54.60;;;;;;5029781;28;20655;-76
2021/03/03 09:13:20;;;;;;;;;;;12.00;53.90;;;;;;5032890;28;19975;-76
2021/03/03 09:16:01;;;;;;;;;;;12.10;53.70;;;;;;5030696;28;19928;-75
2021/03/03 09:18:27;;;;;;;;;;;12.20;53.00;;;;;;5026458;28;19929;-75
2021/03/03 09:21:03;;;;;;;;;;;12.20;52.20;;;;;;5025105;28;19921;-75
2021/03/03 09:23:29;;;;;;;;;;;12.20;51.80;;;;;;5031231;28;19921;-75
2021/03/03 09:25:56;;;;;;;;;;;12.20;51.40;;;;;;5028544;28;19936;-75
2021/03/03 09:28:38;;;;;;;;;;;12.20;51.40;;;;;;5034676;28;20428;-75
2021/03/03 09:31:04;;;;;;;;;;;12.20;51.00;;;;;;5022143;28;19967;-76
2021/03/03 09:33:31;;;;;;;;;;;12.30;51.00;;;;;;5033676;28;19929;-76
2021/03/03 09:35:57;;;;;;;;;;;12.30;50.50;;;;;;5033968;28;19929;-76
2021/03/03 09:38:23;;;;;;;;;;;12.30;50.40;;;;;;5035006;28;19927;-76
2021/03/03 09:40:50;;;;;;;;;;;12.40;50.60;;;;;;5032490;28;19921;-76
2021/03/03 09:43:17;;;;;;;;;;;12.40;50.40;;;;;;5015342;28;20350;-77
2021/03/03 09:45:43;;;;;;;;;;;12.50;50.10;;;;;;5015500;28;19929;-76
2021/03/03 09:48:10;;;;;;;;;;;12.50;50.10;;;;;;5014785;28;19921;-77
2021/03/03 09:50:37;;;;;;;;;;;12.60;50.10;;;;;;5028650;28;19921;-76
2021/03/03 09:53:03;;;;;;;;;;;12.70;50.00;;;;;;5014443;28;19921;-76
2021/03/03 09:55:31;;;;;;;;;;;12.80;49.80;;;;;;5014868;28;19933;-76
2021/03/03 09:57:57;;;;;;;;;;;12.90;49.80;;;;;;5014065;28;19928;-76
2021/03/03 10:00:25;;;;;;;;;;;13.00;49.70;;;;;;5015857;28;19928;-76
2021/03/03 10:02:52;;;;;;;;;;;13.10;49.40;;;;;;5017311;28;19952;-76
2021/03/03 10:05:19;;;;;;;;;;;13.10;49.10;;;;;;5027152;28;19921;-76
2021/03/03 10:07:49;;;;;;;;;;;13.20;48.90;;;;;;5038305;28;19920;-76
2021/03/03 10:10:17;;;;;;;;;;;13.20;48.70;;;;;;5037883;28;19921;-77
2021/03/03 10:12:43;;;;;;;;;;;13.30;48.70;;;;;;5034019;28;20293;-77
2021/03/03 10:15:10;;;;;;;;;;;13.30;48.40;;;;;;5033124;28;19936;-77
2021/03/03 10:17:39;;;;;;;;;;;13.30;48.40;;;;;;5032723;28;20420;-77
2021/03/03 10:20:07;;;;;;;;;;;13.40;48.30;;;;;;5023862;28;20370;-77
2021/03/03 10:22:33;;;;;;;;;;;13.50;48.40;;;;;;5033313;28;19921;-78
2021/03/03 10:25:00;;;;;;;;;;;13.60;48.30;;;;;;5023910;28;19975;-77
2021/03/03 10:27:29;;;;;;;;;;;13.60;48.10;;;;;;5024907;28;19921;-77
2021/03/03 10:29:56;;;;;;;;;;;13.70;48.20;;;;;;5025905;28;20008;-77
2021/03/03 10:32:22;;;;;;;;;;;13.80;48.00;;;;;;5013959;28;19965;-77
2021/03/03 10:34:51;;;;;;;;;;;13.90;48.00;;;;;;5015064;28;19926;-77
2021/03/03 10:37:24;;;;;;;;;;;14.00;48.00;;;;;;5015991;28;19921;-77
2021/03/03 10:39:51;;;;;;;;;;;14.10;47.80;;;;;;5014160;28;20370;-76
2021/03/03 10:42:21;;;;;;;;;;;14.20;47.80;;;;;;5018243;28;19975;-77
2021/03/03 10:44:49;;;;;;;;;;;14.30;47.90;;;;;;5032824;28;20020;-76
2021/03/03 10:47:16;;;;;;;;;;;14.40;47.70;;;;;;5031959;28;19929;-76
2021/03/03 10:50:01;;;;;;;;;;;14.50;47.20;;;;;;5013597;28;19996;-76
2021/03/03 10:52:29;;;;;;;;;;;14.70;47.20;;;;;;5023819;28;19922;-76
2021/03/03 10:54:55;;;;;;;;;;;14.80;47.20;;;;;;5014099;28;19930;-77
2021/03/03 10:57:21;;;;;;;;;;;14.90;47.10;;;;;;5020466;28;20312;-77
2021/03/03 10:59:48;;;;;;;;;;;15.10;47.00;;;;;;5033233;28;19967;-76
2021/03/03 11:02:22;;;;;;;;;;;15.20;46.70;;;;;;5031062;28;20392;-77
2021/03/03 11:04:48;;;;;;;;;;;15.30;46.60;;;;;;5033480;28;20333;-76
2021/03/03 11:07:17;;;;;;;;;;;15.40;46.60;;;;;;5035546;28;20016;-77
2021/03/03 11:09:50;;;;;;;;;;;15.40;46.30;;;;;;5032703;28;20015;-76
2021/03/03 11:12:21;;;;;;;;;;;15.50;46.10;;;;;;5019844;28;20031;-75
2021/03/03 11:14:47;;;;;;;;;;;15.60;46.00;;;;;;5031143;28;19944;-75
2021/03/03 11:17:14;;;;;;;;;;;15.60;45.80;;;;;;5031334;28;19920;-75
2021/03/03 11:19:41;;;;;;;;;;;15.70;45.90;;;;;;5015718;28;19971;-74
2021/03/03 11:22:07;;;;;;;;;;;15.70;46.00;;;;;;5014868;28;20388;-74
2021/03/03 11:24:33;;;;;;;;;;;15.70;45.90;;;;;;5031384;28;19925;-73
2021/03/03 11:27:00;;;;;;;;;;;15.80;46.10;;;;;;5031362;28;20485;-72
2021/03/03 11:29:27;;;;;;;;;;;15.80;46.00;;;;;;5014967;28;19921;-73
2021/03/03 11:31:53;;;;;;;;;;;15.80;45.90;;;;;;5015826;28;19921;-74
2021/03/03 11:34:20;;;;;;;;;;;15.90;45.70;;;;;;5021606;28;20431;-72
2021/03/03 11:36:46;;;;;;;;;;;16.00;45.70;;;;;;5032614;28;19924;-73
2021/03/03 11:39:12;;;;;;;;;;;16.00;46.10;;;;;;5032805;28;20336;-73
2021/03/03 11:41:39;;;;;;;;;;;16.10;45.40;;;;;;5032197;28;19966;-73
2021/03/03 11:44:07;;;;;;;;;;;16.10;45.30;;;;;;5031282;28;20286;-73
2021/03/03 11:46:34;;;;;;;;;;;16.20;45.20;;;;;;5026776;28;19927;-73
2021/03/03 11:49:00;;;;;;;;;;;16.30;45.20;;;;;;5032679;28;20401;-74
2021/03/03 11:51:26;;;;;;;;;;;16.40;44.80;;;;;;5016707;28;19933;-73
2021/03/03 11:53:52;;;;;;;;;;;16.40;44.70;;;;;;5014297;28;19932;-73
2021/03/03 11:56:19;;;;;;;;;;;16.40;44.80;;;;;;5012692;28;19921;-73
2021/03/03 11:58:45;;;;;;;;;;;16.30;44.70;;;;;;5018730;28;20403;-73
2021/03/03 12:01:12;;;;;;;;;;;16.20;44.80;;;;;;5032121;28;19925;-73
2021/03/03 12:03:38;;;;;;;;;;;16.10;45.00;;;;;;5020317;28;19944;-73
2021/03/03 12:06:05;;;;;;;;;;;16.10;45.00;;;;;;5032397;28;19920;-73
2021/03/03 12:08:31;;;;;;;;;;;16.10;45.00;;;;;;5019978;28;19921;-74
2021/03/03 12:10:57;;;;;;;;;;;16.00;44.80;;;;;;5011856;28;19929;-73
2021/03/03 12:13:24;;;;;;;;;;;16.00;44.90;;;;;;5032044;28;19928;-73
2021/03/03 12:15:50;;;;;;;;;;;15.90;45.00;;;;;;5031849;28;20390;-73
2021/03/03 12:18:17;;;;;;;;;;;15.90;45.10;;;;;;5032212;28;19967;-73
2021/03/03 12:20:43;;;;;;;;;;;15.90;45.20;;;;;;5032429;28;19941;-74
2021/03/03 12:23:10;;;;;;;;;;;15.90;45.20;;;;;;5030441;28;19955;-74
2021/03/03 12:25:36;;;;;;;;;;;15.90;45.10;;;;;;5032353;28;20409;-74
2021/03/03 12:28:03;;;;;;;;;;;15.90;45.20;;;;;;5015050;28;19925;-74
2021/03/03 12:30:29;;;;;;;;;;;15.90;45.20;;;;;;5012422;28;20293;-74
2021/03/03 12:32:55;;;;;;;;;;;16.00;45.40;;;;;;5015657;28;19921;-74
2021/03/03 12:35:23;;;;;;;;;;;16.00;45.40;;;;;;5016191;28;19944;-74
2021/03/03 12:37:49;;;;;;;;;;;16.10;45.20;;;;;;5028249;28;19921;-74
2021/03/03 12:40:15;;;;;;;;;;;16.10;45.30;;;;;;5035837;28;19925;-74
2021/03/03 12:42:41;;;;;;;;;;;16.10;45.30;;;;;;5026480;28;19921;-74
2021/03/03 12:45:08;;;;;;;;;;;16.10;45.30;;;;;;5018037;28;19921;-74
2021/03/03 12:47:35;;;;;;;;;;;16.10;45.10;;;;;;5034211;28;19928;-74
2021/03/03 12:50:01;;;;;;;;;;;16.10;45.10;;;;;;5035095;28;20014;-74
2021/03/03 12:52:28;;;;;;;;;;;16.00;45.10;;;;;;5034008;28;19928;-74
2021/03/03 12:54:54;;;;;;;;;;;16.00;45.20;;;;;;5035480;28;19928;-74
2021/03/03 12:57:21;;;;;;;;;;;15.90;45.20;;;;;;5033412;28;19924;-74
2021/03/03 12:59:47;;;;;;;;;;;15.90;45.40;;;;;;5035605;28;19925;-74
2021/03/03 13:02:14;;;;;;;;;;;15.90;45.40;;;;;;5025145;28;19921;-74
2021/03/03 13:04:40;;;;;;;;;;;15.90;45.40;;;;;;5022516;28;20392;-74
2021/03/03 13:07:06;;;;;;;;;;;15.90;45.50;;;;;;5041666;28;20399;-74
2021/03/03 13:09:33;;;;;;;;;;;16.00;45.60;;;;;;5035191;28;19922;-74
2021/03/03 13:12:00;;;;;;;;;;;16.00;45.50;;;;;;5031114;28;20376;-74
2021/03/03 13:14:26;;;;;;;;;;;16.00;45.30;;;;;;5035180;28;20385;-74
2021/03/03 13:16:52;;;;;;;;;;;16.00;45.30;;;;;;5035135;28;20436;-74
2021/03/03 13:19:19;;;;;;;;;;;16.00;45.30;;;;;;5035081;28;19920;-74
2021/03/03 13:21:45;;;;;;;;;;;16.00;45.20;;;;;;5034433;28;20016;-74
2021/03/03 13:24:11;;;;;;;;;;;16.00;45.30;;;;;;5034964;28;19921;-73
2021/03/03 13:26:38;;;;;;;;;;;16.00;45.30;;;;;;5030375;28;19968;-73
2021/03/03 13:29:05;;;;;;;;;;;16.00;45.30;;;;;;5022496;28;19925;-73
2021/03/03 13:31:31;;;;;;;;;;;16.00;45.20;;;;;;5015122;28;19948;-73
2021/03/03 13:33:58;;;;;;;;;;;16.00;45.10;;;;;;5032263;28;19921;-73
2021/03/03 13:36:24;;;;;;;;;;;16.00;45.10;;;;;;5034396;28;19963;-73
2021/03/03 13:38:50;;;;;;;;;;;16.00;45.00;;;;;;5034783;28;19932;-74
2021/03/03 13:41:16;;;;;;;;;;;16.00;45.10;;;;;;5034948;28;19924;-74
2021/03/03 13:43:44;;;;;;;;;;;16.00;45.20;;;;;;5033601;28;19921;-74
2021/03/03 13:46:10;;;;;;;;;;;16.00;45.20;;;;;;5022513;28;19921;-73
2021/03/03 13:48:36;;;;;;;;;;;16.10;45.30;;;;;;5015768;28;19968;-73
2021/03/03 13:51:02;;;;;;;;;;;16.00;45.10;;;;;;5032026;28;19921;-73
2021/03/03 13:53:29;;;;;;;;;;;16.00;45.10;;;;;;5022839;28;19922;-73
2021/03/03 13:55:55;;;;;;;;;;;15.90;45.30;;;;;;5023059;28;19925;-73
2021/03/03 13:58:21;;;;;;;;;;;15.80;45.50;;;;;;5034209;28;19921;-73
2021/03/03 14:00:48;;;;;;;;;;;15.90;45.70;;;;;;5025548;28;20370;-73
2021/03/03 14:03:17;;;;;;;;;;;15.90;45.70;;;;;;5020553;28;19928;-72
2021/03/03 14:05:43;;;;;;;;;;;15.90;45.60;;;;;;5027492;28;20382;-73
2021/03/03 14:08:10;;;;;;;;;;;15.90;45.60;;;;;;5035285;28;19933;-73
2021/03/03 14:10:36;;;;;;;;;;;15.90;45.60;;;;;;5014362;28;19925;-73
2021/03/03 14:13:02;;;;;;;;;;;15.90;45.70;;;;;;5022665;28;19925;-73
2021/03/03 14:15:28;;;;;;;;;;;16.00;45.80;;;;;;5034299;28;19991;-73
2021/03/03 14:17:56;;;;;;;;;;;16.00;45.70;;;;;;5033640;28;20380;-73
2021/03/03 14:20:22;;;;;;;;;;;16.00;46.30;;;;;;5033356;28;20336;-73
2021/03/03 14:22:49;;;;;;;;;;;16.10;45.70;;;;;;5030403;28;19921;-73
2021/03/03 14:25:15;;;;;;;;;;;16.10;45.70;;;;;;5033766;28;19925;-73